INDIA METEOROLOGICAL DEPARTMENT, R.M.C. NEW DELHI
Dated:24 - 1 - 2020
METARS OF ALTERNATE AIRPORTS
Delhi      
VIDP 241330Z 26005KT 3200 HZ NSC 16/05 Q1015 BECMG 3000 HZ=
Lucknow    
VILK 241330Z VRB02KT 3000 HZ NSC 15/09 Q1016 NOSIG=
Jaipur     
VIJP 241330Z VRB03KT 3500 HZ FEW100 18/M02 Q1016 BECMG 3000 HZ=
Ahmedabad  
VAAH 241330Z 01002KT 4000 FU NSC 23/10 Q1015 NOSIG=
Udaipur    
VAUD 241300Z 07002KT 5000 HZ FEW100 19/10 Q1016 NOSIG =
Mumbai     
VABB 241330Z 34006KT 4000 FU NSC 30/17 Q1012 NOSIG=